NCAR-RAP Real-Time Weather Data

Output produced by METARs form (10 April 2020  07:25 UTC)
found at http://weather.rap.ucar.edu/surface/
 
KGPI 100655Z AUTO 00000KT 10SM CLR 00/M03 A2992 RMK AO2 SLP142 T00001033 401781050 TSNO
KGPI 100555Z 00000KT 10SM CLR 02/M03 A2992 RMK AO2 SLP142 T00171033 10172 20011 51007
KGPI 100455Z 00000KT 10SM CLR 05/M03 A2992 RMK AO2 SLP141 T00501028
KGPI 100355Z 00000KT 10SM CLR 07/M03 A2991 RMK AO2 SLP139 T00721033
KGPI 100255Z 00000KT 10SM CLR 09/M04 A2990 RMK AO2 SLP136 T00941039 56010
KGPI 100155Z 16006KT 10SM CLR 14/M03 A2990 RMK AO2 SLP136 T01441033
KGPI 100055Z 17010KT 10SM CLR 17/M03 A2991 RMK AO2 SLP141 T01671033
KGPI 092355Z 16010KT 10SM CLR 17/M04 A2993 RMK AO2 SLP146 T01721044 10178 20111 56026
KGPI 092255Z 17010KT 10SM CLR 18/M04 A2996 RMK AO2 SLP154 T01781044
KGPI 092155Z 14009KT 10SM CLR 17/M06 A2998 RMK AO2 SLP164 T01671056
KGPI 092055Z 13004KT 10SM CLR 16/M06 A3001 RMK AO2 SLP176 T01561061 56031
KGPI 091955Z 16007KT 110V210 10SM CLR 15/M06 A3004 RMK AO2 SLP186 T01501056
KGPI 091855Z 16005KT 10SM CLR 13/M06 A3007 RMK AO2 SLP197 T01281056
KGPI 091755Z 04004KT 10SM CLR 11/M06 A3012 RMK AO2 SLP210 T01111061 10111 21050 56015
KGPI 091655Z 08003KT 10SM CLR 08/M04 A3013 RMK AO2 SLP215 T00831044
KGPI 091555Z 00000KT 10SM CLR 06/M04 A3015 RMK AO2 SLP221 T00611039
KGPI 091455Z 00000KT 7SM CLR 02/M03 A3016 RMK AO2 SLP227 T00221033 52002
KGPI 091355Z 00000KT 10SM CLR M03/M06 A3016 RMK AO2 SLP230 T10281061
KGPI 091255Z AUTO 00000KT 10SM CLR M05/M07 A3016 RMK AO2 SLP229 T10501072 TSNO
KGPI 091155Z AUTO 00000KT 10SM CLR M04/M07 A3016 RMK AO2 SLP228 T10391072 10022 21039 53002 TSNO
KGPI 091055Z AUTO 01003KT 10SM CLR M04/M07 A3015 RMK AO2 SLP226 T10391067 TSNO
KGPI 090955Z AUTO 00000KT 10SM CLR M03/M07 A3015 RMK AO2 SLP224 T10281067 TSNO